createdAt,value
2018-05-29T00:00:56.461Z,85.19
2018-05-29T00:01:56.458Z,84.42
2018-05-29T00:02:56.469Z,85
2018-05-29T00:03:56.454Z,84.71
2018-05-29T00:04:56.709Z,84.81
2018-05-29T00:05:56.702Z,84.91
2018-05-29T00:06:56.702Z,85.86
2018-05-29T00:07:56.700Z,86.63
2018-05-29T00:08:56.697Z,86.34
2018-05-29T00:09:56.694Z,85.58
2018-05-29T00:10:56.692Z,85.48
2018-05-29T00:11:56.431Z,85.19
2018-05-29T00:12:56.698Z,84.61
2018-05-29T00:13:56.700Z,85.48
2018-05-29T00:14:56.681Z,85
2018-05-29T00:15:56.681Z,85.96
2018-05-29T00:16:56.414Z,85.96
2018-05-29T00:17:56.411Z,85.38
2018-05-29T00:18:56.416Z,85.48
2018-05-29T00:19:56.406Z,85.58
2018-05-29T00:20:56.405Z,86.44
2018-05-29T00:21:56.645Z,86.63
2018-05-29T00:22:56.396Z,85.58
2018-05-29T00:23:56.659Z,85.96
2018-05-29T00:24:56.650Z,86.15
2018-05-29T00:25:56.648Z,86.15
2018-05-29T00:26:56.646Z,86.34
2018-05-29T00:27:56.385Z,86.25
2018-05-29T00:28:56.642Z,85.48
2018-05-29T00:29:56.378Z,86.34
2018-05-29T00:30:56.377Z,85
2018-05-29T00:31:56.628Z,85.1
2018-05-29T00:32:56.628Z,86.05
2018-05-29T00:33:56.637Z,86.25
2018-05-29T00:34:56.620Z,85.58
2018-05-29T00:35:56.362Z,84.52
2018-05-29T00:36:56.618Z,84.04
2018-05-29T00:37:56.618Z,84.71
2018-05-29T00:38:56.356Z,84.14
2018-05-29T00:39:56.353Z,82.51
2018-05-29T00:40:56.605Z,84.04
2018-05-29T00:41:56.349Z,84.71
2018-05-29T00:42:56.340Z,84.04
2018-05-29T00:43:56.337Z,84.33
2018-05-29T00:44:56.595Z,84.91
2018-05-29T00:45:56.588Z,83.27
2018-05-29T00:46:56.600Z,84.52
2018-05-29T00:47:56.585Z,84.52
2018-05-29T00:48:56.586Z,82.98
2018-05-29T00:49:56.605Z,82.7
2018-05-29T00:50:56.318Z,82.7
2018-05-29T00:51:56.578Z,83.18
2018-05-29T00:52:56.790Z,82.21
2018-05-29T00:53:56.570Z,83.47
2018-05-29T00:54:56.305Z,83.37
2018-05-29T00:55:56.563Z,82.89
2018-05-29T00:56:56.559Z,82.98
2018-05-29T00:57:56.298Z,81.74
2018-05-29T00:58:56.554Z,82.12
2018-05-29T00:59:56.558Z,81.54
2018-05-29T01:00:56.296Z,81.35
2018-05-29T01:01:56.544Z,81.35
2018-05-29T01:02:56.545Z,81.07
2018-05-29T01:03:56.536Z,80.97
2018-05-29T01:04:56.276Z,81.93
2018-05-29T01:05:56.532Z,81.84
2018-05-29T01:06:56.532Z,81.84
2018-05-29T01:07:56.528Z,82.41
2018-05-29T01:08:56.272Z,82.79
2018-05-29T01:09:56.526Z,82.51
2018-05-29T01:10:56.518Z,82.79
2018-05-29T01:11:56.260Z,82.12
2018-05-29T01:12:56.513Z,82.98
2018-05-29T01:13:56.253Z,83.37
2018-05-29T01:14:56.523Z,83.85
2018-05-29T01:15:56.502Z,83.85
2018-05-29T01:16:56.501Z,84.04
2018-05-29T01:17:56.242Z,84.52
2018-05-29T01:18:56.494Z,84.23
2018-05-29T01:19:56.497Z,84.14
2018-05-29T01:20:56.491Z,84.71
2018-05-29T01:21:56.229Z,84.14
2018-05-29T01:22:56.495Z,84.42
2018-05-29T01:23:56.484Z,84.04
2018-05-29T01:24:56.222Z,84.14
2018-05-29T01:25:56.476Z,82.98
2018-05-29T01:26:56.214Z,82.51
2018-05-29T01:27:56.469Z,81.54
2018-05-29T01:28:56.209Z,81.64
2018-05-29T01:29:56.461Z,82.21
2018-05-29T01:30:56.462Z,82.31
2018-05-29T01:31:56.459Z,82.98
2018-05-29T01:32:56.454Z,83.18
2018-05-29T01:33:56.454Z,81.35
2018-05-29T01:34:56.191Z,80.87
2018-05-29T01:35:56.446Z,80.97
2018-05-29T01:36:56.442Z,81.16
2018-05-29T01:37:56.187Z,80.2
2018-05-29T01:38:56.438Z,80.11
2018-05-29T01:39:56.177Z,80.87
2018-05-29T01:40:56.174Z,81.74
2018-05-29T01:41:56.169Z,81.74
2018-05-29T01:42:56.426Z,82.12
2018-05-29T01:43:56.423Z,81.54
2018-05-29T01:44:56.422Z,80.58
2018-05-29T01:45:56.419Z,81.74
2018-05-29T01:46:56.415Z,82.51
2018-05-29T01:47:56.411Z,81.93
2018-05-29T01:48:56.409Z,80.58
2018-05-29T01:49:56.404Z,80.49
2018-05-29T01:50:56.417Z,80.58
2018-05-29T01:51:56.140Z,80.68
2018-05-29T01:52:56.140Z,80.2
2018-05-29T01:53:56.139Z,80.4
2018-05-29T01:54:56.391Z,80.01
2018-05-29T01:55:56.388Z,79.34
2018-05-29T01:56:56.385Z,79.91
2018-05-29T01:57:56.393Z,79.53
2018-05-29T01:58:56.381Z,80.49
2018-05-29T01:59:56.386Z,80.78
2018-05-29T02:00:56.376Z,80.01
2018-05-29T02:01:56.113Z,79.44
2018-05-29T02:02:56.368Z,80.11
2018-05-29T02:03:56.364Z,80.11
2018-05-29T02:04:56.104Z,80.49
2018-05-29T02:05:56.100Z,79.44
2018-05-29T02:06:56.356Z,79.63
2018-05-29T02:07:56.352Z,79.05
2018-05-29T02:08:56.353Z,77.95
2018-05-29T02:09:56.096Z,77.67
2018-05-29T02:10:56.343Z,77.67
2018-05-29T02:11:56.342Z,77
2018-05-29T02:12:56.339Z,77.29
2018-05-29T02:13:56.334Z,77.19
2018-05-29T02:14:56.073Z,77
2018-05-29T02:15:56.331Z,77.76
2018-05-29T02:16:56.068Z,76.9
2018-05-29T02:17:56.068Z,76.81
2018-05-29T02:18:56.337Z,77.19
2018-05-29T02:19:56.058Z,77.95
2018-05-29T02:20:56.313Z,77
2018-05-29T02:21:56.314Z,74.79
2018-05-29T02:22:56.310Z,74.98
2018-05-29T02:23:56.309Z,74.51
2018-05-29T02:24:56.042Z,74.31
2018-05-29T02:25:56.504Z,73.93
2018-05-29T02:26:56.038Z,73.55
2018-05-29T02:27:56.290Z,73.07
2018-05-29T02:28:56.029Z,73.65
2018-05-29T02:29:56.025Z,72.3
2018-05-29T02:30:56.289Z,72.68
2018-05-29T02:31:56.280Z,73.45
2018-05-29T02:32:56.289Z,73.55
2018-05-29T02:33:56.272Z,74.89
2018-05-29T02:34:56.269Z,74.02
2018-05-29T02:35:56.299Z,73.74
2018-05-29T02:36:56.006Z,73.45
2018-05-29T02:37:56.258Z,73.26
2018-05-29T02:38:56.259Z,72.59
2018-05-29T02:39:56.255Z,72.2
2018-05-29T02:40:55.993Z,72.88
2018-05-29T02:41:56.266Z,71.25
2018-05-29T02:42:56.242Z,72.01
2018-05-29T02:43:56.260Z,73.07
2018-05-29T02:44:55.977Z,73.16
2018-05-29T02:45:56.243Z,73.65
2018-05-29T02:46:56.233Z,73.07
2018-05-29T02:47:56.228Z,72.97
2018-05-29T02:48:56.225Z,72.88
2018-05-29T02:49:55.963Z,73.35
2018-05-29T02:50:56.218Z,73.07
2018-05-29T02:51:56.214Z,72.2
2018-05-29T02:52:56.209Z,73.07
2018-05-29T02:53:56.225Z,72.78
2018-05-29T02:54:56.204Z,72.01
2018-05-29T02:55:56.020Z,72.11
2018-05-29T02:56:56.195Z,70.48
2018-05-29T02:57:55.954Z,70.29
2018-05-29T02:58:55.933Z,70.09
2018-05-29T02:59:56.209Z,69.33
2018-05-29T03:00:56.191Z,69.04
2018-05-29T03:01:56.180Z,69.68
2018-05-29T03:02:56.180Z,69.71
2018-05-29T03:03:56.190Z,69.52
2018-05-29T03:04:56.172Z,68.91
2018-05-29T03:05:55.911Z,68.62
2018-05-29T03:06:55.908Z,67.6
2018-05-29T03:07:55.918Z,67.22
2018-05-29T03:08:56.161Z,66.83
2018-05-29T03:09:55.899Z,66.35
2018-05-29T03:10:56.156Z,66.22
2018-05-29T03:11:55.891Z,66.51
2018-05-29T03:12:56.150Z,66.42
2018-05-29T03:13:56.144Z,66.71
2018-05-29T03:14:56.141Z,65.75
2018-05-29T03:15:56.134Z,64.69
2018-05-29T03:16:56.135Z,64.31
2018-05-29T03:17:55.870Z,65.55
2018-05-29T03:18:55.886Z,65.46
2018-05-29T03:19:56.124Z,65.84
2018-05-29T03:20:55.901Z,65.36
2018-05-29T03:21:56.119Z,65.75
2018-05-29T03:22:56.118Z,66.22
2018-05-29T03:23:56.113Z,66.16
2018-05-29T03:24:56.108Z,66.45
2018-05-29T03:25:56.103Z,65.11
2018-05-29T03:26:56.098Z,66.26
2018-05-29T03:27:56.096Z,65.39
2018-05-29T03:28:56.100Z,64.92
2018-05-29T03:29:55.833Z,65.2
2018-05-29T03:30:56.088Z,64.72
2018-05-29T03:31:56.088Z,65.08
2018-05-29T03:32:56.235Z,65.39
2018-05-29T03:33:56.098Z,65.88
2018-05-29T03:34:56.073Z,65.78
2018-05-29T03:35:56.069Z,63.76
2018-05-29T03:36:56.084Z,65.68
2018-05-29T03:37:56.073Z,66.35
2018-05-29T03:38:55.802Z,67.02
2018-05-29T03:39:55.799Z,66.93
2018-05-29T03:40:56.069Z,67.6
2018-05-29T03:41:56.055Z,67.6
2018-05-29T03:42:55.788Z,68.46
2018-05-29T03:43:56.050Z,70.38
2018-05-29T03:44:55.783Z,71.15
2018-05-29T03:45:55.779Z,72.33
2018-05-29T03:46:56.035Z,72.91
2018-05-29T03:47:56.033Z,72.91
2018-05-29T03:48:56.247Z,73.2
2018-05-29T03:49:56.037Z,73.49
2018-05-29T03:50:55.774Z,73.3
2018-05-29T03:51:56.021Z,73
2018-05-29T03:52:56.014Z,73
2018-05-29T03:53:56.013Z,72.24
2018-05-29T03:54:56.011Z,74.73
2018-05-29T03:55:56.005Z,75.98
2018-05-29T03:56:56.006Z,76.27
2018-05-29T03:57:56.003Z,76.07
2018-05-29T03:58:55.741Z,75.4
2018-05-29T03:59:56.001Z,75.7
2018-05-29T04:00:55.731Z,75.4
2018-05-29T04:01:55.987Z,73.97
2018-05-29T04:02:55.726Z,74.54
2018-05-29T04:03:55.985Z,73.68
2018-05-29T04:04:55.981Z,73.58
2018-05-29T04:05:55.977Z,73.58
2018-05-29T04:06:55.972Z,73.77
2018-05-29T04:07:55.972Z,75.6
2018-05-29T04:08:55.709Z,76.59
2018-05-29T04:09:56.016Z,76.12
2018-05-29T04:10:55.963Z,75.92
2018-05-29T04:11:55.702Z,75.45
2018-05-29T04:12:55.699Z,73.62
2018-05-29T04:13:55.953Z,73.52
2018-05-29T04:14:55.952Z,74.48
2018-05-29T04:15:56.027Z,74.01
2018-05-29T04:16:55.974Z,75.15
2018-05-29T04:17:55.944Z,75.82
2018-05-29T04:18:55.946Z,75.35
2018-05-29T04:19:55.677Z,76.02
2018-05-29T04:20:55.932Z,75.73
2018-05-29T04:21:55.672Z,75.15
2018-05-29T04:22:55.673Z,75.92
2018-05-29T04:23:55.924Z,76.69
2018-05-29T04:24:55.934Z,75.25
2018-05-29T04:25:55.923Z,74.77
2018-05-29T04:26:55.926Z,74.29
2018-05-29T04:27:55.913Z,74.1
2018-05-29T04:28:55.909Z,74.58
2018-05-29T04:29:55.910Z,73.81
2018-05-29T04:30:55.911Z,73.24
2018-05-29T04:31:55.906Z,74.01
2018-05-29T04:32:55.903Z,74.87
2018-05-29T04:33:55.897Z,75.73
2018-05-29T04:34:55.896Z,76.12
2018-05-29T04:35:55.633Z,76.79
2018-05-29T04:36:55.892Z,78.52
2018-05-29T04:37:55.884Z,78.9
2018-05-29T04:38:55.627Z,78.94
2018-05-29T04:39:55.884Z,79.71
2018-05-29T04:40:55.880Z,79.71
2018-05-29T04:41:55.875Z,80.09
2018-05-29T04:42:55.873Z,80.28
2018-05-29T04:43:55.618Z,80.47
2018-05-29T04:44:55.611Z,81.72
2018-05-29T04:45:55.869Z,82.3
2018-05-29T04:46:55.868Z,82.87
2018-05-29T04:47:55.864Z,82.24
2018-05-29T04:48:55.603Z,81.67
2018-05-29T04:49:55.857Z,81.76
2018-05-29T04:50:55.863Z,81.57
2018-05-29T04:51:55.856Z,81.67
2018-05-29T04:52:55.871Z,82.15
2018-05-29T04:53:56.088Z,83.2
2018-05-29T04:54:55.587Z,83.87
2018-05-29T04:55:55.846Z,83.69
2018-05-29T04:56:55.583Z,84.74
2018-05-29T04:57:55.841Z,83.63
2018-05-29T04:58:55.579Z,82.82
2018-05-29T04:59:55.577Z,84.17
2018-05-29T05:00:55.838Z,83.3
2018-05-29T05:01:55.834Z,83.3
2018-05-29T05:02:55.825Z,84.64
2018-05-29T05:03:55.826Z,85.75
2018-05-29T05:04:55.565Z,86.22
2018-05-29T05:05:55.824Z,85.84
2018-05-29T05:06:55.844Z,86.8
2018-05-29T05:07:55.561Z,85.65
2018-05-29T05:08:55.940Z,86.61
2018-05-29T05:09:55.815Z,86.42
2018-05-29T05:10:55.816Z,86.04
2018-05-29T05:11:55.560Z,86.32
2018-05-29T05:12:55.556Z,86.9
2018-05-29T05:13:55.825Z,85.46
2018-05-29T05:14:55.808Z,85.84
2018-05-29T05:15:55.804Z,85.75
2018-05-29T05:16:55.804Z,86.56
2018-05-29T05:17:55.801Z,89.35
2018-05-29T05:18:55.800Z,89.15
2018-05-29T05:19:55.540Z,88.77
2018-05-29T05:20:55.802Z,88.1
2018-05-29T05:21:55.798Z,88.19
2018-05-29T05:22:55.805Z,87.42
2018-05-29T05:23:55.797Z,87.23
2018-05-29T05:24:55.534Z,87.52
2018-05-29T05:25:55.795Z,87.62
2018-05-29T05:26:55.530Z,86.94
2018-05-29T05:27:55.528Z,87.9
2018-05-29T05:28:55.527Z,87.23
2018-05-29T05:29:55.790Z,87.13
2018-05-29T05:30:55.783Z,86.99
2018-05-29T05:31:55.788Z,85.02
2018-05-29T05:32:55.785Z,84.44
2018-05-29T05:33:55.520Z,84.29
2018-05-29T05:34:55.521Z,83.48
2018-05-29T05:35:55.776Z,82.42
2018-05-29T05:36:55.779Z,84.25
2018-05-29T05:37:55.777Z,85.6
2018-05-29T05:38:55.777Z,86.46
2018-05-29T05:39:55.774Z,86.94
2018-05-29T05:40:55.514Z,87.08
2018-05-29T05:41:55.771Z,86.99
2018-05-29T05:42:55.770Z,86.41
2018-05-29T05:43:55.771Z,86.02
2018-05-29T05:44:55.509Z,87.95
2018-05-29T05:45:55.766Z,88.24
2018-05-29T05:46:55.862Z,88.24
2018-05-29T05:47:55.763Z,88.91
2018-05-29T05:48:55.762Z,88.95
2018-05-29T05:49:55.767Z,88.67
2018-05-29T05:50:55.504Z,89.72
2018-05-29T05:51:55.769Z,89.72
2018-05-29T05:52:55.763Z,89.34
2018-05-29T05:53:55.768Z,88.76
2018-05-29T05:54:55.513Z,89.05
2018-05-29T05:55:55.754Z,89.53
2018-05-29T05:56:55.762Z,89.72
2018-05-29T05:57:55.498Z,89.72
2018-05-29T05:58:55.759Z,89.77
2018-05-29T05:59:55.756Z,90.25
2018-05-29T06:00:55.753Z,90.34
2018-05-29T06:01:55.500Z,90.44
2018-05-29T06:02:55.794Z,90.54
2018-05-29T06:03:55.772Z,90.34
2018-05-29T06:04:55.495Z,90.54
2018-05-29T06:05:55.752Z,90.16
2018-05-29T06:06:55.755Z,90.16
2018-05-29T06:07:55.750Z,89.96
2018-05-29T06:08:55.752Z,90
2018-05-29T06:09:55.750Z,91.16
2018-05-29T06:10:55.493Z,90.48
2018-05-29T06:11:55.493Z,90.2
2018-05-29T06:12:55.750Z,90.48
2018-05-29T06:13:55.492Z,90.2
2018-05-29T06:14:55.753Z,90.68
2018-05-29T06:15:55.750Z,90.58
2018-05-29T06:16:55.749Z,90.3
2018-05-29T06:17:55.754Z,90
2018-05-29T06:18:55.489Z,89.91
2018-05-29T06:19:55.491Z,89.43
2018-05-29T06:20:55.496Z,89.76
2018-05-29T06:21:55.747Z,89.81
2018-05-29T06:22:55.489Z,90.24
2018-05-29T06:23:55.749Z,90.15
2018-05-29T06:24:55.800Z,89.67
2018-05-29T06:25:55.753Z,89.67
2018-05-29T06:26:55.746Z,89.86
2018-05-29T06:27:55.748Z,89.95
2018-05-29T06:28:55.749Z,90.24
2018-05-29T06:29:55.748Z,89.51
2018-05-29T06:30:55.493Z,89.95
2018-05-29T06:31:55.753Z,89.67
2018-05-29T06:32:55.752Z,89.76
2018-05-29T06:33:55.750Z,89.67
2018-05-29T06:34:55.751Z,88.84
2018-05-29T06:35:55.761Z,88.75
2018-05-29T06:36:55.771Z,88.93
2018-05-29T06:37:55.755Z,88.75
2018-05-29T06:38:55.494Z,87.44
2018-05-29T06:39:55.495Z,86.13
2018-05-29T06:40:55.497Z,83.66
2018-05-29T06:41:55.755Z,81.04
2018-05-29T06:42:55.756Z,80.34
2018-05-29T06:43:55.757Z,78.05
2018-05-29T06:44:55.922Z,74.06
2018-05-29T06:45:55.761Z,70.64
2018-05-29T06:46:55.983Z,67.96
2018-05-29T06:47:55.768Z,64.59
2018-05-29T06:48:55.768Z,61.51
2018-05-29T06:49:55.770Z,59.63
2018-05-29T06:50:55.770Z,54.6
2018-05-29T06:51:55.776Z,58.71
2018-05-29T06:52:55.779Z,55.43
2018-05-29T06:53:55.523Z,53.44
2018-05-29T06:54:55.786Z,47.12
2018-05-29T06:55:55.799Z,45.02
2018-05-29T06:56:55.793Z,49.9
2018-05-29T06:57:55.545Z,48.77
2018-05-29T06:58:55.817Z,43.62
2018-05-29T06:59:55.815Z,41.49
2018-05-29T07:00:55.559Z,40.03
2018-05-29T07:01:55.823Z,38.1
2018-05-29T07:02:55.829Z,40.66
2018-05-29T07:03:55.888Z,45.07
2018-05-29T07:04:55.840Z,41.27
2018-05-29T07:05:55.848Z,36.78
2018-05-29T07:06:55.864Z,37.76
2018-05-29T07:07:55.870Z,43.47
2018-05-29T07:08:55.608Z,45.55
2018-05-29T07:09:55.873Z,41.35
2018-05-29T07:10:55.885Z,37.03
2018-05-29T07:11:55.893Z,41.37
2018-05-29T07:12:55.901Z,41.27
2018-05-29T07:13:55.912Z,39.58
2018-05-29T07:14:55.917Z,37.63
2018-05-29T07:15:55.666Z,33.23
2018-05-29T07:16:55.931Z,32.15
2018-05-29T07:17:55.946Z,31.64
2018-05-29T07:18:55.951Z,34.69
2018-05-29T07:19:55.993Z,34.41
2018-05-29T07:20:55.967Z,33.84
2018-05-29T07:21:55.975Z,35.21
2018-05-29T07:22:55.987Z,35.71
2018-05-29T07:23:55.994Z,31.79
2018-05-29T07:24:55.746Z,29.63
2018-05-29T07:25:55.756Z,29.53
2018-05-29T07:26:56.025Z,31.8
2018-05-29T07:27:56.031Z,28.65
2018-05-29T07:28:56.042Z,30.43
2018-05-29T07:29:55.795Z,31.11
2018-05-29T07:30:56.076Z,32.98
2018-05-29T07:31:55.827Z,29.74
2018-05-29T07:32:56.080Z,29.75
2018-05-29T07:33:56.092Z,26.4
2018-05-29T07:34:56.103Z,29.85
2018-05-29T07:35:55.852Z,32.31
2018-05-29T07:36:56.127Z,29.75
2018-05-29T07:37:56.135Z,27.99
2018-05-29T07:38:55.903Z,32.62
2018-05-29T07:39:55.899Z,30.45
2018-05-29T07:40:56.167Z,34.49
2018-05-29T07:41:56.194Z,34.58
2018-05-29T07:42:56.186Z,29.53
2018-05-29T07:43:55.940Z,27.47
2018-05-29T07:44:56.212Z,35.27
2018-05-29T07:45:56.220Z,29.94
2018-05-29T07:46:56.230Z,33.49
2018-05-29T07:47:56.243Z,29.94
2018-05-29T07:48:56.253Z,29.25
2018-05-29T07:49:56.265Z,27.87
2018-05-29T07:50:56.278Z,27.87
2018-05-29T07:51:56.361Z,27.97
2018-05-29T07:52:56.303Z,27.28
2018-05-29T07:53:56.308Z,26.3
2018-05-29T07:54:56.321Z,27.48
2018-05-29T07:55:56.078Z,28.86
2018-05-29T07:56:56.347Z,31.03
2018-05-29T07:57:56.354Z,33.39
2018-05-29T07:58:56.180Z,33.08
2018-05-29T07:59:56.382Z,32.6
2018-05-29T08:00:56.383Z,27.89
2018-05-29T08:01:56.136Z,27.4
2018-05-29T08:02:56.404Z,32.82
2018-05-29T08:03:56.416Z,31.62
2018-05-29T08:04:56.425Z,27.97
2018-05-29T08:05:56.435Z,27.28
2018-05-29T08:06:56.185Z,30.22
2018-05-29T08:07:56.455Z,30.6
2018-05-29T08:08:56.462Z,30.69
2018-05-29T08:09:56.471Z,29.89
2018-05-29T08:10:56.226Z,32.14
2018-05-29T08:11:56.494Z,31.51
2018-05-29T08:12:56.506Z,33.46
2018-05-29T08:13:56.510Z,34.52
2018-05-29T08:14:56.261Z,34.69
2018-05-29T08:15:56.269Z,36.51
2018-05-29T08:16:56.538Z,37.96
2018-05-29T08:17:56.545Z,39.9
2018-05-29T08:18:56.295Z,40.86
2018-05-29T08:19:56.560Z,39.75
2018-05-29T08:20:56.567Z,40.14
2018-05-29T08:21:56.579Z,42.26
2018-05-29T08:22:56.588Z,40.29
2018-05-29T08:23:56.339Z,40.17
2018-05-29T08:24:56.604Z,46.59
2018-05-29T08:25:56.610Z,44.73
2018-05-29T08:26:56.619Z,48.02
2018-05-29T08:27:56.624Z,44.52
2018-05-29T08:28:56.628Z,46.86
2018-05-29T08:29:56.633Z,46.17
2018-05-29T08:30:56.672Z,49.76
2018-05-29T08:31:56.667Z,53.16
2018-05-29T08:32:56.657Z,55.11
2018-05-29T08:33:56.410Z,52.97
2018-05-29T08:34:56.414Z,45.2
2018-05-29T08:35:56.682Z,44.79
2018-05-29T08:36:56.686Z,50.24
2018-05-29T08:37:56.432Z,44.49
2018-05-29T08:38:56.443Z,44.69
2018-05-29T08:39:56.706Z,43.43
2018-05-29T08:40:56.713Z,47.03
2018-05-29T08:41:56.459Z,47.39
2018-05-29T08:43:56.473Z,46.51
2018-05-29T08:44:56.764Z,46.91
2018-05-29T08:45:56.744Z,47.88
2018-05-29T08:46:56.753Z,48.36
2018-05-29T08:47:56.496Z,48.46
2018-05-29T08:48:56.503Z,47.39
2018-05-29T08:49:56.510Z,47.1
2018-05-29T08:50:56.773Z,44.38
2018-05-29T08:51:56.783Z,44.76
2018-05-29T08:52:56.786Z,44.67
2018-05-29T08:53:56.534Z,48.75
2018-05-29T08:54:56.538Z,43.5
2018-05-29T08:55:56.812Z,43.7
2018-05-29T08:56:56.809Z,43.5
2018-05-29T08:57:56.558Z,46.32
2018-05-29T08:58:56.821Z,55.76
2018-05-29T08:59:56.830Z,54.01
2018-05-29T09:00:56.831Z,51.48
2018-05-29T09:01:56.865Z,50.02
2018-05-29T09:02:56.844Z,54.79
2018-05-29T09:03:56.597Z,52.06
2018-05-29T09:04:56.597Z,44.96
2018-05-29T09:05:56.603Z,44.86
2018-05-29T09:06:56.868Z,45.06
2018-05-29T09:07:56.890Z,47.39
2018-05-29T09:08:56.879Z,45.54
2018-05-29T09:09:56.886Z,45.74
2018-05-29T09:10:56.891Z,45.74
2018-05-29T09:11:56.693Z,47.39
2018-05-29T09:12:56.902Z,45.74
2018-05-29T09:13:56.906Z,46.23
2018-05-29T09:14:56.916Z,44.09
2018-05-29T09:15:56.927Z,45.54
2018-05-29T09:16:56.927Z,43.89
2018-05-29T09:17:56.936Z,44.28
2018-05-29T09:18:56.674Z,44.38
2018-05-29T09:19:57.035Z,43.6
2018-05-29T09:20:56.943Z,42.63
2018-05-29T09:21:56.693Z,43.6
2018-05-29T09:22:56.962Z,44.48
2018-05-29T09:23:56.702Z,43.5
2018-05-29T09:24:56.708Z,44.74
2018-05-29T09:25:57.010Z,45.62
2018-05-29T09:26:56.718Z,50.51
2018-05-29T09:27:56.983Z,48.85
2018-05-29T09:28:56.728Z,48.56
2018-05-29T09:29:56.798Z,47.49
2018-05-29T09:30:56.999Z,45.64
2018-05-29T09:31:56.746Z,44.76
2018-05-29T09:32:57.009Z,47.3
2018-05-29T09:33:57.021Z,45.86
2018-05-29T09:34:57.024Z,45.15
2018-05-29T09:35:57.024Z,43.23
2018-05-29T09:36:57.028Z,49.34
2018-05-29T09:37:56.775Z,46.51
2018-05-29T09:38:57.039Z,43.21
2018-05-29T09:39:57.048Z,42.82
2018-05-29T09:40:56.791Z,41.26
2018-05-29T09:41:57.059Z,44.67
2018-05-29T09:42:56.804Z,44.96
2018-05-29T09:43:57.065Z,44.2
2018-05-29T09:44:57.070Z,43.62
2018-05-29T09:45:57.291Z,43.52
2018-05-29T09:46:56.823Z,43.33
2018-05-29T09:47:57.085Z,40.01
2018-05-29T09:48:57.098Z,42.16
2018-05-29T09:49:56.838Z,42.65
2018-05-29T09:50:57.102Z,39.34
2018-05-29T09:51:56.854Z,40.11
2018-05-29T09:52:56.925Z,41.36
2018-05-29T09:53:57.118Z,43.4
2018-05-29T09:54:56.864Z,40.78
2018-05-29T09:55:57.146Z,39.31
2018-05-29T09:56:56.876Z,41.46
2018-05-29T09:57:57.141Z,44.09
2018-05-29T09:58:56.884Z,45.54
2018-05-29T09:59:56.892Z,42.24
2018-05-29T10:00:57.155Z,42.04
2018-05-29T10:01:56.903Z,44.67
2018-05-29T10:02:57.167Z,41.65
2018-05-29T10:03:57.169Z,47.1
2018-05-29T10:04:57.180Z,43.79
2018-05-29T10:05:56.921Z,44.01
2018-05-29T10:06:56.995Z,43.04
2018-05-29T10:07:57.193Z,42.35
2018-05-29T10:08:56.937Z,41.46
2018-05-29T10:09:57.217Z,45.06
2018-05-29T10:10:57.206Z,43.01
2018-05-29T10:11:56.954Z,41.94
2018-05-29T10:12:57.213Z,42.43
2018-05-29T10:13:57.238Z,40.97
2018-05-29T10:14:57.230Z,42.63
2018-05-29T10:15:57.277Z,44.57
2018-05-29T10:16:57.276Z,43.11
2018-05-29T10:17:56.982Z,45.74
2018-05-29T10:18:57.247Z,45.74
2018-05-29T10:19:57.253Z,44.96
2018-05-29T10:20:57.258Z,43.01
2018-05-29T10:21:57.262Z,44.28
2018-05-29T10:22:57.265Z,44.57
2018-05-29T10:23:57.274Z,47.32
2018-05-29T10:24:57.283Z,48.27
2018-05-29T10:25:57.023Z,47.49
2018-05-29T10:26:57.290Z,44.69
2018-05-29T10:27:57.036Z,45.18
2018-05-29T10:28:57.043Z,42.65
2018-05-29T10:29:57.303Z,43.43
2018-05-29T10:30:57.399Z,43.71
2018-05-29T10:31:57.313Z,43.43
2018-05-29T10:32:57.319Z,43.23
2018-05-29T10:33:57.322Z,42.16
2018-05-29T10:34:57.071Z,44.89
2018-05-29T10:35:57.336Z,43.52
2018-05-29T10:36:57.341Z,42.55
2018-05-29T10:37:57.087Z,40.7
2018-05-29T10:38:57.350Z,44.4
2018-05-29T10:39:57.371Z,46.73
2018-05-29T10:40:57.104Z,45.57
2018-05-29T10:41:57.365Z,43.81
2018-05-29T10:42:57.114Z,42.38
2018-05-29T10:43:57.382Z,40.91
2018-05-29T10:44:57.383Z,40.03
2018-05-29T10:45:57.447Z,40.52
2018-05-29T10:46:57.135Z,42.66
2018-05-29T10:47:57.397Z,40.62
2018-05-29T10:48:57.408Z,38.38
2018-05-29T10:49:57.410Z,39.36
2018-05-29T10:50:57.156Z,41.67
2018-05-29T10:51:57.420Z,41.5
2018-05-29T10:52:57.432Z,43.84
2018-05-29T10:53:57.428Z,39.65
2018-05-29T10:54:57.441Z,40.72
2018-05-29T10:55:57.443Z,40.52
2018-05-29T10:56:57.451Z,41.3
2018-05-29T10:57:57.194Z,40.52
2018-05-29T10:58:57.459Z,39.36
2018-05-29T10:59:57.463Z,39.75
2018-05-29T11:00:57.465Z,41.79
2018-05-29T11:01:57.214Z,41.2
2018-05-29T11:02:57.477Z,43.44
2018-05-29T11:03:57.483Z,43.35
2018-05-29T11:04:57.487Z,43.05
2018-05-29T11:05:57.255Z,43.54
2018-05-29T11:06:57.272Z,42.66
2018-05-29T11:07:57.511Z,42.38
2018-05-29T11:08:57.514Z,41.4
2018-05-29T11:09:57.517Z,40.42
2018-05-29T11:10:57.523Z,43.05
2018-05-29T11:11:57.531Z,43.44
2018-05-29T11:12:57.533Z,41.6
2018-05-29T11:13:57.278Z,42.66
2018-05-29T11:14:57.544Z,42.38
2018-05-29T11:15:57.556Z,41.11
2018-05-29T11:16:57.757Z,39.75
2018-05-29T11:17:57.322Z,39.84
2018-05-29T11:18:57.566Z,40.81
2018-05-29T11:19:57.315Z,43.44
2018-05-29T11:20:57.321Z,44.05
2018-05-29T11:21:57.325Z,42.49
2018-05-29T11:22:57.589Z,44.15
2018-05-29T11:23:57.341Z,45.32
2018-05-29T11:24:57.343Z,42.1
2018-05-29T11:25:57.348Z,41.71
2018-05-29T11:26:57.615Z,38.59
2018-05-29T11:27:57.619Z,38.69
2018-05-29T11:28:57.642Z,38.69
2018-05-29T11:29:57.628Z,41.03
2018-05-29T11:30:57.375Z,42.59
2018-05-29T11:31:57.639Z,42.59
2018-05-29T11:32:57.388Z,42.18
2018-05-29T11:33:57.393Z,47.44
2018-05-29T11:34:57.660Z,43.74
2018-05-29T11:35:57.408Z,41.89
2018-05-29T11:36:57.668Z,41.3
2018-05-29T11:37:57.679Z,42.08
2018-05-29T11:38:57.423Z,41.5
2018-05-29T11:39:57.688Z,42.18
2018-05-29T11:40:57.693Z,41.4
2018-05-29T11:41:57.696Z,45.29
2018-05-29T11:42:57.445Z,46.47
2018-05-29T11:43:57.709Z,44.83
2018-05-29T11:44:57.768Z,43.25
2018-05-29T11:45:57.465Z,42.59
2018-05-29T11:46:57.466Z,44.54
2018-05-29T11:47:57.742Z,44.44
2018-05-29T11:48:57.742Z,45.42
2018-05-29T11:49:57.743Z,43.85
2018-05-29T11:50:57.493Z,43.85
2018-05-29T11:51:57.979Z,43.66
2018-05-29T11:52:57.506Z,43.54
2018-05-29T11:53:57.774Z,43.35
2018-05-29T11:54:57.852Z,43.64
2018-05-29T11:55:57.521Z,43.18
2018-05-29T11:56:57.786Z,41.71
2018-05-29T11:57:57.531Z,41.71
2018-05-29T11:58:57.538Z,42.59
2018-05-29T11:59:57.549Z,43.37
2018-05-29T12:00:57.809Z,42.49
2018-05-29T12:01:57.833Z,42.59
2018-05-29T12:02:57.567Z,41.32
2018-05-29T12:03:57.826Z,41.61
2018-05-29T12:04:57.832Z,41.73
2018-05-29T12:05:57.838Z,40.95
2018-05-29T12:06:57.585Z,41.35
2018-05-29T12:07:57.853Z,41.35
2018-05-29T12:08:57.857Z,42.2
2018-05-29T12:09:57.603Z,44.64
2018-05-29T12:10:57.866Z,44.73
2018-05-29T12:11:57.875Z,44.85
2018-05-29T12:12:57.882Z,44.27
2018-05-29T12:13:57.888Z,44.73
2018-05-29T12:14:57.894Z,45.03
2018-05-29T12:15:57.914Z,44.15
2018-05-29T12:16:58.068Z,43.47
2018-05-29T12:17:57.912Z,44.83
2018-05-29T12:18:57.660Z,45.32
2018-05-29T12:19:57.928Z,44.93
2018-05-29T12:20:57.670Z,47.75
2018-05-29T12:21:57.938Z,46.3
2018-05-29T12:22:57.944Z,44.83
2018-05-29T12:23:57.690Z,44.73
2018-05-29T12:24:57.960Z,47.27
2018-05-29T12:25:57.959Z,45.32
2018-05-29T12:26:57.706Z,44.73
2018-05-29T12:27:57.714Z,44.83
2018-05-29T12:28:57.719Z,44.71
2018-05-29T12:29:57.726Z,44.62
2018-05-29T12:30:57.988Z,45.2
2018-05-29T12:31:58.011Z,47.15
2018-05-29T12:32:57.743Z,46.37
2018-05-29T12:33:58.060Z,44.93
2018-05-29T12:34:58.018Z,45.51
2018-05-29T12:35:58.030Z,45.2
2018-05-29T12:36:58.029Z,46.76
2018-05-29T12:37:57.773Z,46.76
2018-05-29T12:38:58.040Z,45
2018-05-29T12:39:57.786Z,45.29
2018-05-29T12:40:58.049Z,44.62
2018-05-29T12:41:58.058Z,46.08
2018-05-29T12:42:57.801Z,47.71
2018-05-29T12:43:58.066Z,47.83
2018-05-29T12:44:58.091Z,48.02
2018-05-29T12:45:57.822Z,49.68
2018-05-29T12:46:58.094Z,44.71
2018-05-29T12:47:58.090Z,44.81
2018-05-29T12:48:58.096Z,45.37
2018-05-29T12:49:57.846Z,46.93
2018-05-29T12:50:58.106Z,47.32
2018-05-29T12:51:58.133Z,47.52
2018-05-29T12:52:58.123Z,46.08
2018-05-29T12:53:57.866Z,45.68
2018-05-29T12:54:57.872Z,47.53
2018-05-29T12:55:57.881Z,49.49
2018-05-29T12:56:58.148Z,48.41
2018-05-29T12:57:58.149Z,47.92